createdAt,value
2022-12-08T00:00:05.049Z,2.80
2022-12-08T00:02:32.189Z,6.20
2022-12-08T00:05:17.658Z,4.80
2022-12-08T00:08:02.638Z,1.43
2022-12-08T00:13:15.642Z,4.13
2022-12-08T00:15:42.002Z,2.97
2022-12-08T00:18:08.410Z,3.27
2022-12-08T00:20:34.842Z,0.97
2022-12-08T00:23:01.365Z,3.63
2022-12-08T00:25:27.715Z,7.27
2022-12-08T00:27:54.080Z,0.90
2022-12-08T00:30:20.473Z,3.90
2022-12-08T00:32:46.846Z,4.97
2022-12-08T00:35:16.425Z,5.60
2022-12-08T00:37:42.829Z,4.33
2022-12-08T00:40:09.633Z,4.53
2022-12-08T00:42:36.036Z,2.30
2022-12-08T00:45:02.447Z,1.47
2022-12-08T00:47:28.811Z,2.40
2022-12-08T00:49:55.207Z,2.03
2022-12-08T00:52:21.624Z,3.60
2022-12-08T00:54:48.073Z,1.53
2022-12-08T00:57:14.507Z,2.70
2022-12-08T00:59:40.967Z,6.83
2022-12-08T01:02:07.378Z,3.13
2022-12-08T01:04:33.826Z,2.83
2022-12-08T01:07:00.251Z,3.87
2022-12-08T01:09:26.661Z,2.57
2022-12-08T01:11:53.102Z,1.80
2022-12-08T01:14:19.497Z,3.10
2022-12-08T01:16:46.070Z,1.70
2022-12-08T01:19:15.233Z,4.90
2022-12-08T01:21:42.064Z,2.80
2022-12-08T01:24:12.090Z,4.87
2022-12-08T01:26:38.528Z,0.93
2022-12-08T01:29:05.979Z,1.70
2022-12-08T01:31:32.411Z,4.23
2022-12-08T01:33:58.996Z,1.07
2022-12-08T01:36:28.394Z,3.10
2022-12-08T01:38:57.654Z,1.60
2022-12-08T01:41:26.586Z,0.80
2022-12-08T01:44:08.368Z,1.50
2022-12-08T01:46:45.814Z,2.83
2022-12-08T01:49:27.947Z,3.37
2022-12-08T01:52:02.909Z,1.77
2022-12-08T01:54:42.318Z,1.20
2022-12-08T01:57:16.672Z,6.23
2022-12-08T01:59:48.737Z,5.87
2022-12-08T02:02:15.326Z,3.83
2022-12-08T02:04:41.913Z,3.37
2022-12-08T02:07:10.348Z,3.47
2022-12-08T02:09:38.519Z,2.03
2022-12-08T02:12:05.192Z,1.90
2022-12-08T02:14:32.261Z,0.63
2022-12-08T02:17:26.122Z,4.03
2022-12-08T02:20:14.548Z,2.37
2022-12-08T02:22:51.991Z,2.27
2022-12-08T02:25:55.436Z,2.47
2022-12-08T02:28:47.410Z,5.90
2022-12-08T02:31:38.586Z,1.53
2022-12-08T02:38:19.771Z,3.23
2022-12-08T02:41:04.289Z,7.30
2022-12-08T02:43:44.237Z,1.60
2022-12-08T02:46:27.339Z,0.40
2022-12-08T02:48:55.818Z,5.40
2022-12-08T02:51:22.206Z,2.87
2022-12-08T02:53:49.237Z,2.23
2022-12-08T02:56:49.227Z,3.60
2022-12-08T02:59:36.092Z,3.50
2022-12-08T03:02:16.716Z,3.73
2022-12-08T03:04:59.020Z,1.17
2022-12-08T03:07:51.295Z,4.80
2022-12-08T03:10:27.989Z,2.13
2022-12-08T03:13:06.150Z,3.27
2022-12-08T03:15:34.057Z,1.50
2022-12-08T03:18:00.922Z,5.30
2022-12-08T03:20:30.045Z,7.10
2022-12-08T03:23:00.107Z,1.77
2022-12-08T03:25:31.130Z,9.00
2022-12-08T03:27:59.090Z,3.43
2022-12-08T03:30:27.670Z,2.63
2022-12-08T03:33:03.788Z,1.70
2022-12-08T03:35:33.415Z,7.53
2022-12-08T03:38:12.702Z,2.43
2022-12-08T03:40:40.030Z,1.50
2022-12-08T03:43:07.105Z,1.70
2022-12-08T03:45:33.747Z,10.43
2022-12-08T03:48:00.236Z,1.77
2022-12-08T03:50:26.680Z,3.83
2022-12-08T03:52:53.151Z,2.13
2022-12-08T03:55:21.401Z,4.40
2022-12-08T03:57:47.771Z,4.07
2022-12-08T04:00:15.813Z,2.43
2022-12-08T04:02:42.223Z,2.27
2022-12-08T04:05:08.995Z,2.00
2022-12-08T04:07:35.447Z,4.63
2022-12-08T04:10:02.185Z,2.47
2022-12-08T04:12:28.748Z,2.67
2022-12-08T04:14:55.211Z,2.53
2022-12-08T04:17:21.630Z,3.10
2022-12-08T04:19:49.057Z,0.67
2022-12-08T04:22:15.487Z,0.87
2022-12-08T04:24:41.919Z,0.53
2022-12-08T04:27:08.312Z,7.53
2022-12-08T04:29:34.737Z,1.93
2022-12-08T04:32:01.470Z,0.93
2022-12-08T04:34:27.840Z,1.73
2022-12-08T04:36:54.226Z,0.70
2022-12-08T04:45:42.524Z,6.80
2022-12-08T04:48:12.091Z,3.50
2022-12-08T04:50:43.590Z,1.77
2022-12-08T04:53:11.134Z,5.00
2022-12-08T04:55:43.808Z,5.03
2022-12-08T04:58:15.008Z,1.53
2022-12-08T05:00:43.214Z,1.27
2022-12-08T05:03:09.755Z,2.63
2022-12-08T05:05:36.201Z,2.00
2022-12-08T05:08:03.040Z,5.60
2022-12-08T05:10:29.536Z,0.57
2022-12-08T05:12:55.961Z,0.30
2022-12-08T05:15:22.321Z,5.77
2022-12-08T05:17:48.738Z,2.93
2022-12-08T05:20:15.140Z,2.73
2022-12-08T05:22:41.495Z,3.23
2022-12-08T05:25:08.331Z,1.07
2022-12-08T05:27:35.112Z,2.70
2022-12-08T05:30:01.986Z,0.47
2022-12-08T05:32:28.630Z,1.83
2022-12-08T05:34:54.988Z,0.80
2022-12-08T05:37:21.410Z,1.00
2022-12-08T05:39:47.811Z,1.40
2022-12-08T05:42:14.163Z,8.50
2022-12-08T05:44:40.571Z,3.40
2022-12-08T05:47:07.062Z,1.60
2022-12-08T05:49:33.587Z,0.20
2022-12-08T05:52:00.044Z,1.13
2022-12-08T05:54:26.422Z,0.20
2022-12-08T05:56:52.813Z,2.43
2022-12-08T05:59:19.343Z,0.97
2022-12-08T06:01:46.875Z,3.57
2022-12-08T06:04:13.249Z,1.10
2022-12-08T06:06:39.627Z,0.60
2022-12-08T06:09:06.668Z,0.63
2022-12-08T06:11:33.710Z,3.60
2022-12-08T06:14:01.014Z,0.37
2022-12-08T06:16:28.920Z,2.00
2022-12-08T06:18:56.473Z,3.93
2022-12-08T06:21:23.664Z,1.23
2022-12-08T06:23:51.697Z,0.73
2022-12-08T06:26:18.959Z,2.47
2022-12-08T06:28:45.501Z,0.20
2022-12-08T06:31:19.048Z,0.50
2022-12-08T06:33:47.272Z,2.53
2022-12-08T06:36:15.157Z,2.73
2022-12-08T06:38:43.548Z,1.70
2022-12-08T06:41:11.950Z,3.17
2022-12-08T06:43:38.632Z,0.37
2022-12-08T06:46:08.509Z,0.90
2022-12-08T06:48:35.110Z,2.03
2022-12-08T06:51:20.069Z,0.70
2022-12-08T06:53:46.712Z,1.97
2022-12-08T06:56:14.481Z,1.07
2022-12-08T06:58:40.851Z,1.27
2022-12-08T07:01:13.513Z,0.60
2022-12-08T07:03:40.716Z,3.90
2022-12-08T07:06:07.289Z,1.27
2022-12-08T07:08:34.471Z,0.93
2022-12-08T07:11:07.630Z,4.93
2022-12-08T07:13:34.027Z,1.30
2022-12-08T07:16:00.428Z,4.63
2022-12-08T07:18:26.913Z,2.63
2022-12-08T07:20:53.310Z,1.70
2022-12-08T07:23:19.812Z,1.43
2022-12-08T07:25:46.230Z,1.27
2022-12-08T07:28:12.655Z,6.00
2022-12-08T07:30:40.204Z,1.07
2022-12-08T07:33:06.821Z,1.83
2022-12-08T07:35:35.025Z,4.30
2022-12-08T07:38:02.164Z,2.80
2022-12-08T07:40:28.581Z,3.87
2022-12-08T07:42:55.052Z,2.40
2022-12-08T07:45:22.896Z,1.03
2022-12-08T07:47:51.072Z,1.03
2022-12-08T07:50:18.560Z,1.33
2022-12-08T07:52:45.010Z,2.80
2022-12-08T07:55:11.434Z,2.70
2022-12-08T07:57:37.897Z,3.33
2022-12-08T08:00:05.689Z,0.87
2022-12-08T08:02:32.671Z,1.07
2022-12-08T08:04:59.402Z,1.43
2022-12-08T08:07:27.071Z,0.73
2022-12-08T08:09:54.157Z,0.80
2022-12-08T08:12:31.226Z,0.30
2022-12-08T08:14:59.037Z,2.27
2022-12-08T08:17:25.595Z,1.87
2022-12-08T08:19:52.124Z,1.03
2022-12-08T08:22:18.570Z,1.67
2022-12-08T08:24:45.413Z,4.87
2022-12-08T08:27:12.446Z,0.93
2022-12-08T08:29:38.956Z,2.67
2022-12-08T08:32:05.489Z,2.10
2022-12-08T08:34:31.897Z,1.17
2022-12-08T08:36:58.463Z,0.90
2022-12-08T08:39:24.967Z,2.33
2022-12-08T08:41:51.394Z,0.60
2022-12-08T08:44:17.876Z,3.17
2022-12-08T08:46:44.474Z,1.30
2022-12-08T08:49:10.982Z,2.77
2022-12-08T08:51:37.617Z,2.00
2022-12-08T08:54:04.188Z,1.00
2022-12-08T08:56:30.841Z,3.13
2022-12-08T08:58:57.383Z,1.77
2022-12-08T09:01:27.056Z,2.00
2022-12-08T09:03:55.001Z,5.27
2022-12-08T09:06:22.495Z,2.13
2022-12-08T09:08:50.077Z,5.30
2022-12-08T09:11:18.661Z,2.63
2022-12-08T09:13:48.271Z,7.70
2022-12-08T09:16:15.385Z,3.23
2022-12-08T09:18:42.098Z,1.47
2022-12-08T09:21:13.126Z,1.07
2022-12-08T09:23:39.990Z,2.13
2022-12-08T09:26:06.923Z,3.67
2022-12-08T09:28:33.719Z,3.43
2022-12-08T09:31:00.506Z,1.70
2022-12-08T09:33:27.156Z,4.33
2022-12-08T09:35:53.645Z,3.07
2022-12-08T09:38:20.097Z,3.93
2022-12-08T09:40:52.948Z,0.67
2022-12-08T09:43:25.395Z,2.97
2022-12-08T09:45:52.814Z,4.00
2022-12-08T09:48:22.823Z,6.43
2022-12-08T09:50:55.819Z,1.67
2022-12-08T09:53:35.349Z,1.33
2022-12-08T09:56:08.751Z,2.43
2022-12-08T09:58:40.826Z,1.27
2022-12-08T10:01:10.954Z,3.17
2022-12-08T10:03:37.719Z,3.30
2022-12-08T10:06:18.613Z,9.07
2022-12-08T10:09:12.448Z,4.00
2022-12-08T10:11:51.500Z,3.30
2022-12-08T10:14:34.827Z,2.60
2022-12-08T10:17:10.246Z,1.77
2022-12-08T10:19:39.261Z,1.70
2022-12-08T10:22:23.368Z,0.97
2022-12-08T10:24:59.116Z,4.13
2022-12-08T10:27:26.306Z,2.17
2022-12-08T10:29:52.912Z,2.03
2022-12-08T10:32:24.442Z,1.30
2022-12-08T10:35:01.725Z,2.90
2022-12-08T10:37:28.324Z,2.27
2022-12-08T10:40:10.144Z,1.87
2022-12-08T10:42:41.104Z,2.03
2022-12-08T10:45:10.354Z,1.00
2022-12-08T10:47:45.121Z,3.33
2022-12-08T10:50:28.785Z,2.93
2022-12-08T10:53:12.467Z,3.37
2022-12-08T10:55:50.973Z,3.23
2022-12-08T10:58:47.799Z,6.77
2022-12-08T11:01:18.662Z,5.10
2022-12-08T11:03:45.093Z,1.70
2022-12-08T11:06:30.539Z,3.50
2022-12-08T11:09:03.231Z,4.47
2022-12-08T11:11:47.143Z,1.87
2022-12-08T11:14:19.811Z,2.83
2022-12-08T11:16:46.325Z,2.90
2022-12-08T11:19:18.130Z,1.10
2022-12-08T11:21:46.163Z,3.20
2022-12-08T11:24:15.377Z,2.93
2022-12-08T11:26:50.067Z,5.07
2022-12-08T11:29:17.467Z,2.90
2022-12-08T11:31:49.937Z,3.40
2022-12-08T11:34:39.180Z,4.67
2022-12-08T11:37:10.836Z,2.20
2022-12-08T11:39:49.019Z,4.40
2022-12-08T11:42:19.056Z,5.03
2022-12-08T11:45:01.165Z,2.37
2022-12-08T11:47:43.244Z,1.87
2022-12-08T11:50:21.901Z,5.43
2022-12-08T11:52:51.404Z,4.70
2022-12-08T11:55:48.179Z,2.40
2022-12-08T11:58:34.882Z,1.70
2022-12-08T12:01:01.652Z,1.30
2022-12-08T12:03:35.373Z,0.70
2022-12-08T12:06:38.259Z,1.10
2022-12-08T12:09:15.977Z,2.50
2022-12-08T12:12:16.683Z,9.37
2022-12-08T12:15:21.460Z,1.47
2022-12-08T12:18:22.042Z,4.23
2022-12-08T12:20:59.129Z,1.67
2022-12-08T12:23:42.965Z,3.23
2022-12-08T12:26:19.029Z,1.53
2022-12-08T12:29:08.493Z,3.13
2022-12-08T12:31:38.388Z,8.83
2022-12-08T12:34:16.769Z,2.83
2022-12-08T12:36:54.454Z,2.33
2022-12-08T12:39:27.460Z,3.60
2022-12-08T12:42:05.083Z,3.47
2022-12-08T12:44:34.377Z,1.43
2022-12-08T12:47:03.137Z,2.00
2022-12-08T12:49:43.628Z,1.23
2022-12-08T12:52:10.118Z,4.57
2022-12-08T12:54:36.573Z,2.67
2022-12-08T12:57:09.232Z,2.17
2022-12-08T12:59:56.284Z,2.70
2022-12-08T13:02:31.189Z,3.67
2022-12-08T13:05:13.633Z,2.07
2022-12-08T13:07:51.049Z,3.47
2022-12-08T13:10:31.817Z,2.37
2022-12-08T13:13:03.366Z,2.93
2022-12-08T13:15:40.438Z,2.40
2022-12-08T13:18:18.472Z,1.97
2022-12-08T13:21:17.228Z,2.57
2022-12-08T13:23:47.209Z,3.00
2022-12-08T13:26:24.237Z,1.50
2022-12-08T13:29:01.236Z,2.70
2022-12-08T13:31:45.258Z,2.30
2022-12-08T13:34:41.195Z,2.67
2022-12-08T13:37:10.627Z,1.07
2022-12-08T13:39:44.882Z,0.77
2022-12-08T13:42:24.880Z,5.80
2022-12-08T13:45:21.340Z,1.93
2022-12-08T13:48:30.514Z,1.50
2022-12-08T13:57:08.365Z,3.60
2022-12-08T13:59:44.192Z,1.90
2022-12-08T14:02:27.244Z,3.47
2022-12-08T14:05:17.558Z,2.13
2022-12-08T14:07:43.129Z,2.40
2022-12-08T14:10:18.190Z,2.97
2022-12-08T14:12:48.023Z,3.40
2022-12-08T14:15:15.728Z,2.93
2022-12-08T14:17:51.484Z,2.53
2022-12-08T14:20:24.407Z,2.10
2022-12-08T14:22:52.339Z,2.63
2022-12-08T14:25:20.065Z,2.40
2022-12-08T14:27:48.918Z,3.77
2022-12-08T14:30:25.396Z,5.10
2022-12-08T14:32:58.611Z,5.13
2022-12-08T14:35:33.360Z,4.03
2022-12-08T14:38:05.760Z,6.00
2022-12-08T14:40:37.920Z,3.87
2022-12-08T14:43:07.383Z,4.77
2022-12-08T14:45:54.636Z,3.93
2022-12-08T14:48:42.147Z,5.10
2022-12-08T14:51:21.050Z,5.30
2022-12-08T14:53:52.239Z,4.90
2022-12-08T14:56:23.332Z,3.20
2022-12-08T14:59:02.674Z,2.63
2022-12-08T15:01:29.492Z,5.17
2022-12-08T15:04:27.202Z,6.90
2022-12-08T15:07:00.614Z,5.67
2022-12-08T15:09:37.331Z,6.03
2022-12-08T15:12:12.805Z,2.03
2022-12-08T15:14:59.481Z,2.27
2022-12-08T15:17:34.379Z,1.97
2022-12-08T15:20:03.359Z,1.83
2022-12-08T15:22:31.394Z,5.07
2022-12-08T15:24:58.547Z,1.53
2022-12-08T15:27:25.834Z,2.00
2022-12-08T15:29:52.646Z,2.63
2022-12-08T15:32:21.249Z,2.87
2022-12-08T15:34:48.159Z,4.63
2022-12-08T15:37:26.341Z,2.00
2022-12-08T15:39:53.284Z,5.23
2022-12-08T15:42:19.738Z,4.03
2022-12-08T15:44:46.287Z,2.33
2022-12-08T15:47:18.346Z,6.50
2022-12-08T15:49:47.230Z,3.97
2022-12-08T15:52:16.117Z,4.37
2022-12-08T15:54:42.566Z,3.00
2022-12-08T15:57:53.481Z,2.90
2022-12-08T16:00:50.679Z,3.03
2022-12-08T16:04:08.964Z,5.70
2022-12-08T16:07:12.969Z,3.80
2022-12-08T16:09:11.945Z,4.30
2022-12-08T16:12:09.088Z,4.73
2022-12-08T16:17:23.868Z,6.10
2022-12-08T16:19:50.283Z,5.53
2022-12-08T16:25:22.470Z,6.60
2022-12-08T16:28:05.496Z,3.07
2022-12-08T16:30:39.089Z,3.97
2022-12-08T16:33:05.771Z,5.37
2022-12-08T16:35:32.603Z,3.43
2022-12-08T16:37:59.189Z,2.23
2022-12-08T16:40:25.714Z,4.90
2022-12-08T16:42:52.357Z,4.57
2022-12-08T16:45:21.152Z,2.77
2022-12-08T16:47:54.707Z,6.77
2022-12-08T16:50:24.866Z,6.07
2022-12-08T16:52:57.364Z,7.57
2022-12-08T16:55:24.886Z,4.03
2022-12-08T16:57:51.331Z,4.97
2022-12-08T17:00:20.919Z,5.30
2022-12-08T17:02:48.062Z,5.23
2022-12-08T17:05:15.846Z,6.70
2022-12-08T17:07:44.343Z,4.90
2022-12-08T17:10:13.953Z,3.43
2022-12-08T17:12:40.652Z,3.60
2022-12-08T17:15:11.548Z,3.10
2022-12-08T17:17:39.343Z,3.13
2022-12-08T17:20:08.395Z,3.57
2022-12-08T17:22:35.540Z,3.63
2022-12-08T17:25:03.320Z,3.50
2022-12-08T17:27:30.148Z,4.00
2022-12-08T17:29:56.678Z,3.63
2022-12-08T17:32:23.289Z,7.27
2022-12-08T17:34:50.362Z,4.30
2022-12-08T17:37:17.544Z,4.63
2022-12-08T17:39:44.638Z,3.97
2022-12-08T17:42:11.134Z,6.20
2022-12-08T17:44:37.717Z,7.17
2022-12-08T17:47:05.049Z,10.20
2022-12-08T17:49:32.892Z,8.27
2022-12-08T17:52:02.832Z,10.00
2022-12-08T17:54:30.469Z,4.63
2022-12-08T17:56:58.647Z,4.60
2022-12-08T17:59:27.041Z,3.33
2022-12-08T18:01:54.714Z,2.23
2022-12-08T18:04:21.739Z,3.00
2022-12-08T18:06:48.174Z,4.27
2022-12-08T18:09:15.987Z,3.83
2022-12-08T18:11:43.254Z,6.33
2022-12-08T18:14:11.100Z,4.57
2022-12-08T18:16:40.201Z,3.83
2022-12-08T18:19:08.728Z,6.53
2022-12-08T18:21:36.146Z,3.93
2022-12-08T18:24:03.270Z,5.43
2022-12-08T18:26:30.716Z,6.23
2022-12-08T18:28:58.048Z,4.60
2022-12-08T18:31:24.711Z,5.70
2022-12-08T18:33:52.924Z,4.77
2022-12-08T18:36:23.749Z,6.03
2022-12-08T18:38:51.041Z,7.40
2022-12-08T18:41:20.085Z,6.03
2022-12-08T18:43:47.583Z,7.23
2022-12-08T18:46:14.843Z,4.13
2022-12-08T18:48:47.250Z,8.77
2022-12-08T18:51:19.732Z,6.60
2022-12-08T18:53:46.824Z,6.30
2022-12-08T18:56:27.682Z,8.23
2022-12-08T18:58:59.980Z,11.97
2022-12-08T19:01:30.443Z,11.17
2022-12-08T19:04:26.618Z,11.57
2022-12-08T19:06:45.453Z,10.00
2022-12-08T19:09:12.673Z,10.17
2022-12-08T19:11:39.112Z,13.07
2022-12-08T19:14:05.608Z,13.30
2022-12-08T19:16:32.071Z,12.30
2022-12-08T19:18:58.690Z,17.40
2022-12-08T19:21:25.592Z,11.93
2022-12-08T19:23:52.844Z,17.60
2022-12-08T19:26:19.799Z,10.03
2022-12-08T19:28:46.230Z,12.10
2022-12-08T19:31:12.736Z,11.50
2022-12-08T19:33:40.246Z,13.70
2022-12-08T19:36:08.287Z,11.17
2022-12-08T19:38:55.139Z,9.30
2022-12-08T19:41:41.021Z,7.17
2022-12-08T19:44:35.855Z,11.13
2022-12-08T19:47:02.824Z,12.73
2022-12-08T19:49:29.904Z,10.57
2022-12-08T19:51:56.657Z,10.60
2022-12-08T19:54:23.462Z,9.37
2022-12-08T19:56:50.014Z,10.80
2022-12-08T19:59:16.626Z,10.23
2022-12-08T20:01:44.180Z,10.93
2022-12-08T20:04:14.918Z,9.07
2022-12-08T20:06:42.257Z,10.30
2022-12-08T20:09:10.316Z,10.20
2022-12-08T20:11:37.458Z,11.40
2022-12-08T20:14:03.998Z,10.33
2022-12-08T20:16:30.588Z,10.80
2022-12-08T20:18:57.626Z,12.73
2022-12-08T20:21:24.197Z,11.47
2022-12-08T20:23:50.754Z,13.37
2022-12-08T20:26:19.706Z,10.30
2022-12-08T20:28:46.493Z,11.70
2022-12-08T20:31:21.548Z,11.00
2022-12-08T20:33:48.506Z,11.20
2022-12-08T20:36:18.630Z,15.87
2022-12-08T20:38:46.465Z,14.03
2022-12-08T20:41:13.009Z,14.50
2022-12-08T20:43:39.426Z,14.50
2022-12-08T20:46:10.645Z,10.90
2022-12-08T20:48:37.555Z,15.37
2022-12-08T20:51:04.757Z,13.87
2022-12-08T20:53:31.159Z,12.67
2022-12-08T20:55:57.748Z,13.57
2022-12-08T20:58:24.352Z,13.50
2022-12-08T21:00:50.962Z,13.73
2022-12-08T21:03:18.681Z,13.20
2022-12-08T21:05:50.375Z,12.73
2022-12-08T21:08:17.586Z,13.43
2022-12-08T21:10:44.487Z,11.97
2022-12-08T21:13:11.584Z,13.07
2022-12-08T21:15:38.213Z,13.23
2022-12-08T21:18:04.793Z,14.00
2022-12-08T21:20:31.528Z,16.63
2022-12-08T21:22:58.184Z,16.23
2022-12-08T21:25:24.663Z,17.50
2022-12-08T21:27:51.096Z,22.83
2022-12-08T21:30:17.818Z,19.57
2022-12-08T21:32:44.467Z,16.17
2022-12-08T21:35:11.177Z,13.80
2022-12-08T21:37:38.017Z,15.77
2022-12-08T21:40:06.137Z,14.40
2022-12-08T21:42:45.269Z,22.67
2022-12-08T21:45:16.516Z,20.13
2022-12-08T21:47:45.103Z,18.37
2022-12-08T21:50:12.457Z,14.00
2022-12-08T21:52:41.169Z,15.00
2022-12-08T21:55:08.730Z,16.73
2022-12-08T21:57:35.534Z,16.13
2022-12-08T22:00:02.156Z,15.83
2022-12-08T22:02:28.904Z,15.30
2022-12-08T22:04:55.554Z,15.23
2022-12-08T22:07:22.501Z,19.23
2022-12-08T22:09:49.331Z,17.63
2022-12-08T22:12:17.260Z,17.30
2022-12-08T22:14:44.139Z,16.17
2022-12-08T22:17:11.192Z,17.83
2022-12-08T22:19:37.943Z,17.90
2022-12-08T22:22:04.409Z,24.73
2022-12-08T22:24:31.342Z,22.50
2022-12-08T22:26:57.949Z,16.00
2022-12-08T22:29:24.532Z,14.27
2022-12-08T22:31:51.110Z,15.30
2022-12-08T22:34:17.735Z,12.20
2022-12-08T22:36:44.518Z,26.27
2022-12-08T22:39:11.412Z,14.23
2022-12-08T22:41:37.890Z,17.77
2022-12-08T22:44:07.962Z,17.60
2022-12-08T22:46:34.905Z,19.27
2022-12-08T22:49:02.001Z,20.23
2022-12-08T22:51:28.597Z,18.33
2022-12-08T22:53:55.183Z,14.70
2022-12-08T22:56:21.942Z,17.80
2022-12-08T22:58:48.624Z,16.27
2022-12-08T23:01:27.225Z,15.73
2022-12-08T23:03:54.084Z,23.23
2022-12-08T23:06:20.752Z,20.33
2022-12-08T23:08:47.619Z,21.77
2022-12-08T23:11:14.529Z,16.17
2022-12-08T23:13:41.250Z,20.67
2022-12-08T23:16:09.082Z,18.30
2022-12-08T23:18:36.590Z,21.77
2022-12-08T23:21:08.329Z,21.00
2022-12-08T23:23:34.855Z,21.27
2022-12-08T23:26:03.059Z,34.13
2022-12-08T23:28:29.684Z,27.43
2022-12-08T23:30:56.179Z,27.63
2022-12-08T23:33:22.683Z,23.03
2022-12-08T23:35:58.753Z,31.07
2022-12-08T23:38:25.984Z,29.17
2022-12-08T23:40:52.754Z,33.80
2022-12-08T23:43:19.658Z,42.20
2022-12-08T23:45:48.380Z,26.97
2022-12-08T23:48:15.037Z,28.37
2022-12-08T23:50:41.683Z,30.07
2022-12-08T23:53:08.103Z,32.80
2022-12-08T23:55:34.815Z,29.13
2022-12-08T23:58:01.466Z,26.20
